Time;durP1;ratioP1;P1;durP2;ratioP2;P2;SDS_P1;SDS_P2;PMS_P1;PMS_P2;Temp;Humidity;BMP_temperature;BMP_pressure;BME280_temperature;BME280_humidity;BME280_pressure;Samples;Min_cycle;Max_cycle;Signal;HPM_P1;HPM_P2
2023/01/29 00:02:18;;;;;;;12.87;8.87;;;;;;;;;;5114726;28;20265;-78
2023/01/29 00:04:44;;;;;;;9.70;7.97;;;;;;;;;;5104697;28;20233;-79
2023/01/29 00:07:10;;;;;;;10.27;7.70;;;;;;;;;;5096310;28;20651;-78
2023/01/29 00:09:36;;;;;;;9.40;7.40;;;;;;;;;;5098395;28;20180;-78
2023/01/29 00:12:02;;;;;;;10.97;8.57;;;;;;;;;;5094229;28;20521;-78
2023/01/29 00:14:28;;;;;;;9.53;7.93;;;;;;;;;;5117590;28;20218;-78
2023/01/29 00:16:54;;;;;;;9.77;6.70;;;;;;;;;;5117591;28;20178;-79
2023/01/29 00:19:20;;;;;;;7.97;6.53;;;;;;;;;;5108135;28;20198;-78
2023/01/29 00:21:46;;;;;;;9.27;6.37;;;;;;;;;;5102177;27;20175;-79
2023/01/29 00:24:12;;;;;;;8.17;5.57;;;;;;;;;;5101301;27;20600;-78
2023/01/29 00:26:38;;;;;;;9.00;6.07;;;;;;;;;;5115276;27;20169;-78
2023/01/29 00:29:05;;;;;;;8.43;5.97;;;;;;;;;;5106973;27;20188;-78
2023/01/29 00:31:31;;;;;;;7.37;5.20;;;;;;;;;;5104910;27;20311;-77
2023/01/29 00:33:57;;;;;;;7.47;6.00;;;;;;;;;;5106963;27;20207;-78
2023/01/29 00:36:24;;;;;;;8.73;5.43;;;;;;;;;;5117189;27;20186;-79
2023/01/29 00:39:01;;;;;;;8.63;5.40;;;;;;;;;;5098908;28;20172;-78
2023/01/29 00:47:01;;;;;;;7.07;5.53;;;;;;;;;;5130228;27;20201;-77
2023/01/29 00:49:29;;;;;;;8.07;5.83;;;;;;;;;;5127593;27;20176;-78
2023/01/29 00:54:39;;;;;;;8.23;6.57;;;;;;;;;;5134351;27;20227;-77
2023/01/29 00:57:28;;;;;;;8.73;6.80;;;;;;;;;;5109983;27;20626;-79
2023/01/29 00:59:54;;;;;;;9.77;6.67;;;;;;;;;;5109645;27;20595;-78
2023/01/29 01:05:06;;;;;;;8.40;6.13;;;;;;;;;;5104789;27;20197;-78
2023/01/29 01:07:32;;;;;;;8.33;6.67;;;;;;;;;;5111465;27;20182;-79
2023/01/29 01:12:43;;;;;;;7.80;5.73;;;;;;;;;;5118821;27;20217;-78
2023/01/29 01:15:09;;;;;;;7.77;6.10;;;;;;;;;;5116791;27;20181;-78
2023/01/29 01:17:35;;;;;;;7.07;5.80;;;;;;;;;;5114570;27;20171;-78
2023/01/29 01:20:02;;;;;;;7.67;6.20;;;;;;;;;;5105749;27;20693;-78
2023/01/29 01:22:28;;;;;;;9.00;6.17;;;;;;;;;;5110666;27;20193;-78
2023/01/29 01:24:54;;;;;;;8.63;6.57;;;;;;;;;;5116883;27;20244;-78
2023/01/29 01:27:20;;;;;;;9.97;6.60;;;;;;;;;;5113890;27;20186;-79
2023/01/29 01:29:46;;;;;;;6.87;5.97;;;;;;;;;;5097661;28;20628;-79
2023/01/29 01:32:12;;;;;;;8.37;6.50;;;;;;;;;;5110762;28;20254;-79
2023/01/29 01:34:38;;;;;;;8.37;6.70;;;;;;;;;;5115807;27;20258;-79
2023/01/29 01:37:04;;;;;;;9.20;6.67;;;;;;;;;;5106873;27;20635;-78
2023/01/29 01:39:30;;;;;;;9.37;7.00;;;;;;;;;;5115219;27;20185;-79
2023/01/29 01:41:56;;;;;;;9.30;7.77;;;;;;;;;;5096426;27;20573;-78
2023/01/29 01:44:41;;;;;;;9.90;6.67;;;;;;;;;;5117327;27;20218;-78
2023/01/29 01:47:07;;;;;;;12.73;7.73;;;;;;;;;;5104393;27;20202;-78
2023/01/29 01:49:33;;;;;;;10.07;7.97;;;;;;;;;;5103860;27;20236;-79
2023/01/29 01:51:59;;;;;;;10.67;7.77;;;;;;;;;;5104253;27;20195;-77
2023/01/29 01:54:28;;;;;;;10.97;7.70;;;;;;;;;;5115526;27;20211;-78
2023/01/29 01:57:07;;;;;;;9.87;8.27;;;;;;;;;;5095527;28;20183;-79
2023/01/29 01:59:35;;;;;;;11.57;7.90;;;;;;;;;;5099076;28;20516;-78
2023/01/29 02:10:16;;;;;;;10.67;8.10;;;;;;;;;;5102992;27;20192;-77
2023/01/29 02:12:43;;;;;;;11.93;8.77;;;;;;;;;;5099232;27;20263;-79
2023/01/29 02:15:09;;;;;;;10.53;8.57;;;;;;;;;;5096341;27;20270;-79
2023/01/29 02:17:35;;;;;;;11.37;7.90;;;;;;;;;;5115774;27;20261;-78
2023/01/29 02:20:24;;;;;;;11.77;8.43;;;;;;;;;;5103887;27;20176;-78
2023/01/29 02:23:08;;;;;;;13.87;8.97;;;;;;;;;;5102622;27;20561;-79
2023/01/29 02:25:58;;;;;;;12.53;8.60;;;;;;;;;;5102289;27;20631;-78
2023/01/29 02:28:43;;;;;;;12.87;9.00;;;;;;;;;;5108656;27;20186;-78
2023/01/29 02:31:09;;;;;;;9.67;7.57;;;;;;;;;;5110667;28;20181;-79
2023/01/29 02:33:47;;;;;;;10.23;8.03;;;;;;;;;;5111781;27;20254;-77
2023/01/29 02:36:19;;;;;;;11.47;8.37;;;;;;;;;;5114592;27;20289;-79
2023/01/29 02:38:54;;;;;;;11.47;8.53;;;;;;;;;;5112401;27;20639;-78
2023/01/29 02:41:20;;;;;;;11.30;8.93;;;;;;;;;;5115517;27;20185;-79
2023/01/29 02:43:47;;;;;;;10.90;8.47;;;;;;;;;;5118828;27;20544;-78
2023/01/29 02:46:26;;;;;;;14.10;9.07;;;;;;;;;;5107838;27;20202;-79
2023/01/29 02:48:59;;;;;;;14.67;8.70;;;;;;;;;;5112785;27;20216;-79
2023/01/29 02:51:31;;;;;;;10.93;8.87;;;;;;;;;;5096466;27;20198;-79
2023/01/29 02:54:01;;;;;;;11.30;9.07;;;;;;;;;;5096415;28;20197;-78
2023/01/29 02:56:30;;;;;;;13.07;8.87;;;;;;;;;;5111370;28;20175;-78
2023/01/29 02:59:01;;;;;;;13.83;8.93;;;;;;;;;;5105247;27;20183;-78
2023/01/29 03:01:33;;;;;;;12.70;9.03;;;;;;;;;;5105137;27;20695;-78
2023/01/29 03:04:02;;;;;;;12.47;9.53;;;;;;;;;;5102424;27;20175;-78
2023/01/29 03:06:33;;;;;;;13.93;9.03;;;;;;;;;;5113243;27;20284;-79
2023/01/29 03:09:01;;;;;;;11.17;8.70;;;;;;;;;;5095393;27;20168;-79
2023/01/29 03:11:32;;;;;;;11.97;9.10;;;;;;;;;;5114572;27;20172;-78
2023/01/29 03:14:13;;;;;;;11.13;8.47;;;;;;;;;;5105749;27;20336;-79
2023/01/29 03:16:41;;;;;;;12.00;8.30;;;;;;;;;;5108307;27;20195;-78
2023/01/29 03:19:17;;;;;;;10.17;7.67;;;;;;;;;;5112029;27;20194;-78
2023/01/29 03:21:50;;;;;;;10.47;8.13;;;;;;;;;;5114194;27;20192;-78
2023/01/29 03:32:37;;;;;;;12.77;8.90;;;;;;;;;;5096707;28;20284;-78
2023/01/29 03:35:06;;;;;;;10.70;8.10;;;;;;;;;;5099275;27;20187;-79
2023/01/29 03:37:35;;;;;;;11.90;8.17;;;;;;;;;;5101530;28;20184;-78
2023/01/29 03:40:02;;;;;;;10.63;8.13;;;;;;;;;;5101843;27;20185;-78
2023/01/29 03:43:06;;;;;;;11.43;8.23;;;;;;;;;;5112507;28;20629;-79
2023/01/29 03:45:32;;;;;;;12.27;8.77;;;;;;;;;;5016134;28;20197;-79
2023/01/29 03:48:04;;;;;;;10.53;8.47;;;;;;;;;;5012446;28;20552;-78
2023/01/29 03:50:30;;;;;;;12.27;8.27;;;;;;;;;;5029843;28;20183;-79
2023/01/29 03:53:22;;;;;;;11.47;7.97;;;;;;;;;;5011917;28;20312;-78
2023/01/29 03:56:05;;;;;;;12.33;8.73;;;;;;;;;;5026442;28;20196;-78
2023/01/29 03:58:37;;;;;;;11.37;8.33;;;;;;;;;;5012616;28;20195;-78
2023/01/29 04:01:10;;;;;;;12.47;8.70;;;;;;;;;;5014505;28;20238;-78
2023/01/29 04:03:41;;;;;;;11.53;8.00;;;;;;;;;;5029641;28;20224;-78
2023/01/29 04:06:10;;;;;;;11.83;8.23;;;;;;;;;;5029539;28;20293;-78
2023/01/29 04:08:45;;;;;;;10.30;8.13;;;;;;;;;;5029539;28;20612;-78
2023/01/29 04:11:13;;;;;;;10.00;7.70;;;;;;;;;;5012565;28;20189;-78
2023/01/29 04:13:40;;;;;;;10.80;7.97;;;;;;;;;;5010267;28;20225;-79
2023/01/29 04:16:07;;;;;;;11.30;7.43;;;;;;;;;;5041602;28;20915;-79
2023/01/29 04:18:33;;;;;;;10.77;8.43;;;;;;;;;;5100595;28;20186;-77
2023/01/29 04:21:00;;;;;;;11.57;8.13;;;;;;;;;;5122877;28;20182;-78
2023/01/29 04:23:26;;;;;;;11.97;8.57;;;;;;;;;;5114799;28;20182;-77
2023/01/29 04:26:13;;;;;;;14.13;8.37;;;;;;;;;;5104021;28;20553;-78
2023/01/29 04:28:54;;;;;;;13.03;8.23;;;;;;;;;;5086313;28;20211;-78
2023/01/29 04:31:22;;;;;;;12.43;8.40;;;;;;;;;;5099119;28;20188;-78
2023/01/29 04:34:04;;;;;;;9.93;7.37;;;;;;;;;;5114112;28;20231;-77
2023/01/29 04:36:30;;;;;;;12.63;7.93;;;;;;;;;;5091757;28;20207;-78
2023/01/29 04:39:05;;;;;;;10.87;7.77;;;;;;;;;;5094790;28;20211;-78
2023/01/29 04:41:31;;;;;;;10.30;8.80;;;;;;;;;;5108579;28;20183;-78
2023/01/29 04:44:18;;;;;;;10.67;7.47;;;;;;;;;;5100165;28;20193;-77
2023/01/29 04:47:03;;;;;;;13.43;7.77;;;;;;;;;;5105021;28;20186;-78
2023/01/29 04:49:35;;;;;;;10.63;7.60;;;;;;;;;;5109044;28;20231;-79
2023/01/29 04:52:08;;;;;;;13.20;8.20;;;;;;;;;;5113420;28;20194;-78
2023/01/29 04:54:40;;;;;;;11.60;8.50;;;;;;;;;;5095648;28;20235;-78
2023/01/29 04:57:14;;;;;;;10.30;7.60;;;;;;;;;;5094003;28;20176;-78
2023/01/29 04:59:42;;;;;;;10.80;7.70;;;;;;;;;;5095438;28;20653;-76
2023/01/29 05:02:08;;;;;;;10.50;8.30;;;;;;;;;;5099730;28;20195;-78
2023/01/29 05:04:35;;;;;;;13.13;8.17;;;;;;;;;;5107111;28;20211;-79
2023/01/29 05:07:03;;;;;;;12.40;8.37;;;;;;;;;;5113231;28;20651;-79
2023/01/29 05:09:30;;;;;;;12.33;8.47;;;;;;;;;;5097672;27;20282;-78
2023/01/29 05:11:56;;;;;;;12.50;8.63;;;;;;;;;;5095226;28;20202;-78
2023/01/29 05:14:24;;;;;;;12.13;8.60;;;;;;;;;;5116200;27;20675;-79
2023/01/29 05:16:51;;;;;;;8.53;7.60;;;;;;;;;;5107842;27;20187;-78
2023/01/29 05:19:17;;;;;;;12.87;8.80;;;;;;;;;;5105103;27;20639;-78
2023/01/29 05:21:48;;;;;;;10.67;7.83;;;;;;;;;;5116292;27;20186;-78
2023/01/29 05:24:21;;;;;;;12.07;8.10;;;;;;;;;;5101967;27;20189;-79
2023/01/29 05:29:32;;;;;;;11.17;8.80;;;;;;;;;;5105662;27;20211;-79
2023/01/29 05:31:59;;;;;;;12.37;8.90;;;;;;;;;;5102849;27;20257;-79
2023/01/29 05:34:25;;;;;;;10.80;8.43;;;;;;;;;;5102172;27;20896;-79
2023/01/29 05:36:51;;;;;;;12.83;9.10;;;;;;;;;;5096468;27;20188;-79
2023/01/29 05:39:17;;;;;;;13.53;9.23;;;;;;;;;;5109792;27;20243;-79
2023/01/29 05:41:43;;;;;;;14.63;9.27;;;;;;;;;;5097023;27;20176;-80
2023/01/29 05:44:09;;;;;;;14.83;9.60;;;;;;;;;;5102451;27;20184;-78
2023/01/29 05:46:36;;;;;;;14.20;9.27;;;;;;;;;;5103283;27;20605;-78
2023/01/29 05:49:02;;;;;;;14.03;9.53;;;;;;;;;;5103452;27;20235;-78
2023/01/29 05:51:28;;;;;;;14.60;9.30;;;;;;;;;;5103319;27;20186;-79
2023/01/29 05:53:54;;;;;;;13.30;10.30;;;;;;;;;;5099310;27;20252;-78
2023/01/29 05:56:20;;;;;;;14.13;9.33;;;;;;;;;;5113147;27;20187;-79
2023/01/29 05:58:46;;;;;;;16.63;9.80;;;;;;;;;;5107948;27;20198;-78
2023/01/29 06:01:14;;;;;;;12.30;9.83;;;;;;;;;;5103425;27;20274;-79
2023/01/29 06:03:40;;;;;;;13.07;9.43;;;;;;;;;;5113737;27;20188;-78
2023/01/29 06:06:07;;;;;;;14.70;10.50;;;;;;;;;;5095978;27;20171;-78
2023/01/29 06:08:33;;;;;;;14.83;10.13;;;;;;;;;;5109316;27;20206;-78
2023/01/29 06:10:59;;;;;;;15.13;9.77;;;;;;;;;;5108378;27;20245;-78
2023/01/29 06:13:25;;;;;;;15.77;10.83;;;;;;;;;;5102613;27;20302;-78
2023/01/29 06:15:51;;;;;;;14.53;10.23;;;;;;;;;;5102694;27;20256;-79
2023/01/29 06:18:17;;;;;;;14.70;11.27;;;;;;;;;;5107359;28;20659;-77
2023/01/29 06:20:43;;;;;;;16.17;10.83;;;;;;;;;;5114426;28;20171;-78
2023/01/29 06:23:09;;;;;;;15.93;11.37;;;;;;;;;;5104510;27;20190;-79
2023/01/29 06:25:35;;;;;;;14.53;10.70;;;;;;;;;;5106523;27;20213;-78
2023/01/29 06:28:01;;;;;;;16.30;10.33;;;;;;;;;;5114275;27;20218;-77
2023/01/29 06:30:27;;;;;;;14.20;10.77;;;;;;;;;;5096018;27;20187;-78
2023/01/29 06:32:57;;;;;;;15.50;10.53;;;;;;;;;;5098593;28;20235;-79
2023/01/29 06:35:23;;;;;;;17.97;12.00;;;;;;;;;;5095756;27;20187;-77
2023/01/29 06:37:49;;;;;;;16.13;12.20;;;;;;;;;;5102897;27;20204;-79
2023/01/29 06:40:15;;;;;;;14.97;11.20;;;;;;;;;;5097615;27;20240;-79
2023/01/29 06:42:41;;;;;;;16.47;11.63;;;;;;;;;;5112524;27;20243;-79
2023/01/29 06:45:08;;;;;;;15.30;11.17;;;;;;;;;;5106044;28;20262;-78
2023/01/29 06:47:34;;;;;;;16.40;12.07;;;;;;;;;;5098614;28;20207;-78
2023/01/29 06:50:00;;;;;;;14.27;10.90;;;;;;;;;;5099091;28;20549;-79
2023/01/29 06:52:27;;;;;;;18.00;12.13;;;;;;;;;;5099102;28;20184;-78
2023/01/29 06:54:53;;;;;;;17.00;11.40;;;;;;;;;;5106073;28;20196;-79
2023/01/29 06:57:20;;;;;;;14.03;10.90;;;;;;;;;;5095132;28;20176;-77
2023/01/29 06:59:46;;;;;;;19.50;10.80;;;;;;;;;;5095357;28;20259;-78
2023/01/29 07:02:12;;;;;;;18.33;11.93;;;;;;;;;;5096225;28;20222;-79
2023/01/29 07:04:38;;;;;;;14.00;10.03;;;;;;;;;;5098379;28;20591;-79
2023/01/29 07:07:04;;;;;;;15.07;10.33;;;;;;;;;;5102112;28;20187;-79
2023/01/29 07:09:30;;;;;;;15.50;10.73;;;;;;;;;;5091088;28;20621;-78
2023/01/29 07:11:56;;;;;;;14.63;10.50;;;;;;;;;;5093484;28;20172;-78
2023/01/29 07:14:22;;;;;;;16.00;10.83;;;;;;;;;;5094128;28;20287;-79
2023/01/29 07:16:48;;;;;;;13.83;9.77;;;;;;;;;;5094742;28;20232;-79
2023/01/29 07:19:14;;;;;;;12.83;10.17;;;;;;;;;;5097841;28;20702;-79
2023/01/29 07:21:40;;;;;;;12.00;9.20;;;;;;;;;;5098715;28;20215;-79
2023/01/29 07:24:06;;;;;;;13.20;9.07;;;;;;;;;;5106079;28;20180;-79
2023/01/29 07:26:32;;;;;;;17.00;9.37;;;;;;;;;;5110561;28;20190;-79
2023/01/29 07:28:58;;;;;;;15.47;9.73;;;;;;;;;;5104442;28;20183;-79
2023/01/29 07:31:24;;;;;;;13.43;9.77;;;;;;;;;;5093058;28;20208;-79
2023/01/29 07:33:50;;;;;;;18.90;10.33;;;;;;;;;;5092915;28;20595;-79
2023/01/29 07:36:16;;;;;;;14.47;10.37;;;;;;;;;;5093719;28;20172;-80
2023/01/29 07:38:42;;;;;;;13.80;10.07;;;;;;;;;;5096553;28;20209;-79
2023/01/29 07:41:09;;;;;;;12.33;9.13;;;;;;;;;;5092364;28;20199;-80
2023/01/29 07:43:35;;;;;;;17.90;10.40;;;;;;;;;;5096299;28;20194;-79
2023/01/29 07:46:02;;;;;;;13.97;9.53;;;;;;;;;;5109460;28;20190;-79
2023/01/29 07:48:28;;;;;;;14.13;10.10;;;;;;;;;;5111663;28;20174;-79
2023/01/29 07:50:55;;;;;;;14.83;9.83;;;;;;;;;;5121859;28;20194;-79
2023/01/29 07:53:21;;;;;;;15.03;10.27;;;;;;;;;;5119922;28;20207;-78
2023/01/29 07:55:47;;;;;;;12.37;9.87;;;;;;;;;;5117908;28;20198;-77
2023/01/29 07:58:13;;;;;;;13.97;10.50;;;;;;;;;;5115273;28;20188;-80
2023/01/29 08:00:39;;;;;;;15.80;9.87;;;;;;;;;;5092731;28;20597;-78
2023/01/29 08:03:06;;;;;;;14.10;10.07;;;;;;;;;;5110974;28;20262;-79
2023/01/29 08:05:32;;;;;;;12.43;9.93;;;;;;;;;;5096435;28;20180;-78
2023/01/29 08:07:58;;;;;;;14.63;9.43;;;;;;;;;;5096342;28;20192;-77
2023/01/29 08:10:24;;;;;;;13.53;9.80;;;;;;;;;;5098504;28;20183;-79
2023/01/29 08:13:01;;;;;;;11.97;8.70;;;;;;;;;;5101143;28;20302;-79
2023/01/29 08:15:27;;;;;;;15.63;10.53;;;;;;;;;;5102720;28;20189;-78
2023/01/29 08:17:53;;;;;;;13.33;9.47;;;;;;;;;;5096052;28;20183;-77
2023/01/29 08:20:20;;;;;;;12.40;10.13;;;;;;;;;;5089223;28;20188;-77
2023/01/29 08:22:46;;;;;;;16.30;10.57;;;;;;;;;;5093374;28;20273;-78
2023/01/29 08:25:13;;;;;;;14.20;10.40;;;;;;;;;;5103248;28;20184;-78
2023/01/29 08:27:39;;;;;;;15.63;9.77;;;;;;;;;;5089511;28;20284;-78
2023/01/29 08:30:06;;;;;;;13.20;10.20;;;;;;;;;;5097781;28;20183;-78
2023/01/29 08:32:32;;;;;;;13.63;9.57;;;;;;;;;;5100193;28;20293;-78
2023/01/29 08:34:58;;;;;;;11.73;8.73;;;;;;;;;;5099650;28;20196;-78
2023/01/29 08:37:24;;;;;;;13.60;9.70;;;;;;;;;;5099433;28;20218;-80
2023/01/29 08:39:51;;;;;;;15.00;9.87;;;;;;;;;;5100881;28;25412;-78
2023/01/29 08:42:17;;;;;;;14.23;10.80;;;;;;;;;;5094974;28;20172;-78
2023/01/29 08:44:43;;;;;;;15.50;10.37;;;;;;;;;;5107330;28;20270;-78
2023/01/29 08:47:10;;;;;;;14.30;10.00;;;;;;;;;;5107824;28;20189;-79
2023/01/29 08:49:37;;;;;;;16.90;10.73;;;;;;;;;;5095825;28;20653;-78
2023/01/29 08:52:03;;;;;;;13.47;10.47;;;;;;;;;;5093384;28;20184;-79
2023/01/29 08:54:29;;;;;;;15.60;10.67;;;;;;;;;;5094023;28;20319;-79
2023/01/29 08:56:55;;;;;;;13.97;10.17;;;;;;;;;;5103784;28;20643;-79
2023/01/29 08:59:24;;;;;;;14.70;10.47;;;;;;;;;;5097729;28;20187;-79
2023/01/29 09:01:50;;;;;;;14.30;10.23;;;;;;;;;;5103470;28;20190;-82
2023/01/29 09:04:16;;;;;;;14.73;10.83;;;;;;;;;;5095727;28;20211;-80
2023/01/29 09:06:42;;;;;;;13.63;10.47;;;;;;;;;;5112508;28;20637;-79
2023/01/29 09:09:08;;;;;;;16.30;10.97;;;;;;;;;;5096370;28;20172;-80
2023/01/29 09:11:34;;;;;;;15.33;10.13;;;;;;;;;;5105247;28;20183;-80
2023/01/29 09:14:00;;;;;;;17.00;11.37;;;;;;;;;;5105273;28;20680;-81
2023/01/29 09:16:27;;;;;;;15.07;10.40;;;;;;;;;;5095841;28;20770;-79
2023/01/29 09:18:53;;;;;;;17.43;10.27;;;;;;;;;;5103732;28;21578;-80
2023/01/29 09:21:19;;;;;;;13.23;10.70;;;;;;;;;;5104893;28;20257;-80
2023/01/29 09:23:47;;;;;;;16.97;10.53;;;;;;;;;;5100753;28;20190;-79
2023/01/29 09:26:14;;;;;;;15.37;11.07;;;;;;;;;;5097131;28;20207;-81
2023/01/29 09:28:41;;;;;;;15.27;10.77;;;;;;;;;;5106652;28;20670;-80
2023/01/29 09:31:07;;;;;;;14.63;10.80;;;;;;;;;;5097387;28;20225;-80
2023/01/29 09:33:33;;;;;;;17.40;11.67;;;;;;;;;;5108850;28;20219;-80
2023/01/29 09:35:59;;;;;;;14.53;10.63;;;;;;;;;;5109042;28;20186;-80
2023/01/29 09:38:25;;;;;;;15.97;11.83;;;;;;;;;;5102342;28;20185;-80
2023/01/29 09:40:51;;;;;;;15.93;11.23;;;;;;;;;;5105388;28;20177;-80
2023/01/29 09:43:20;;;;;;;17.47;11.63;;;;;;;;;;5102163;28;20217;-81
2023/01/29 09:45:59;;;;;;;15.60;11.47;;;;;;;;;;5099862;28;20192;-79
2023/01/29 09:48:27;;;;;;;21.03;11.40;;;;;;;;;;5100066;28;20175;-80
2023/01/29 09:50:54;;;;;;;18.07;11.90;;;;;;;;;;5100941;28;20191;-79
2023/01/29 09:53:27;;;;;;;15.40;11.57;;;;;;;;;;5104119;28;20215;-81
2023/01/29 09:55:58;;;;;;;17.33;12.10;;;;;;;;;;5100538;28;20271;-80
2023/01/29 09:58:33;;;;;;;17.03;11.77;;;;;;;;;;5100558;28;20198;-80
2023/01/29 10:00:59;;;;;;;15.13;11.23;;;;;;;;;;5102215;28;20237;-80
2023/01/29 10:03:31;;;;;;;16.07;11.27;;;;;;;;;;5104240;28;20616;-80
2023/01/29 10:06:17;;;;;;;17.60;12.33;;;;;;;;;;5101126;28;20270;-81
2023/01/29 10:08:53;;;;;;;17.33;10.63;;;;;;;;;;5027367;28;20283;-79
2023/01/29 10:11:35;;;;;;;15.17;11.13;;;;;;;;;;5043967;28;20558;-79
2023/01/29 10:14:10;;;;;;;17.47;12.40;;;;;;;;;;5042925;28;20752;-79
2023/01/29 10:16:49;;;;;;;17.07;11.67;;;;;;;;;;5043982;28;20182;-79
2023/01/29 10:19:27;;;;;;;16.87;10.77;;;;;;;;;;5037443;28;20195;-80
2023/01/29 10:21:53;;;;;;;17.50;11.37;;;;;;;;;;5037706;28;20720;-79
2023/01/29 10:24:19;;;;;;;18.47;10.93;;;;;;;;;;5034651;28;20285;-79
2023/01/29 10:26:45;;;;;;;20.60;12.50;;;;;;;;;;5023622;28;20797;-79
2023/01/29 10:29:15;;;;;;;17.90;11.90;;;;;;;;;;5039532;28;20182;-79
2023/01/29 10:31:42;;;;;;;17.03;12.63;;;;;;;;;;5033326;28;20221;-79
2023/01/29 10:34:27;;;;;;;19.33;13.90;;;;;;;;;;5038964;28;20657;-79
2023/01/29 10:36:55;;;;;;;18.07;12.10;;;;;;;;;;5023632;28;21376;-80
2023/01/29 10:39:22;;;;;;;16.90;11.93;;;;;;;;;;5025781;28;20185;-79
2023/01/29 10:42:02;;;;;;;20.93;12.03;;;;;;;;;;5038711;28;20188;-79
2023/01/29 10:44:48;;;;;;;16.73;11.97;;;;;;;;;;5036850;28;20194;-79
2023/01/29 10:47:17;;;;;;;13.73;10.40;;;;;;;;;;5098097;28;20222;-80
2023/01/29 10:49:55;;;;;;;18.93;12.23;;;;;;;;;;5098636;28;20172;-80
2023/01/29 10:52:40;;;;;;;19.43;12.23;;;;;;;;;;5097884;28;20184;-80
2023/01/29 10:55:15;;;;;;;19.97;12.00;;;;;;;;;;5093541;28;20202;-80
2023/01/29 10:57:48;;;;;;;18.33;12.53;;;;;;;;;;5102276;28;20193;-80
2023/01/29 11:00:41;;;;;;;21.90;12.67;;;;;;;;;;5098761;28;20179;-81
2023/01/29 11:03:17;;;;;;;19.93;12.23;;;;;;;;;;5107364;28;20243;-80
2023/01/29 11:05:50;;;;;;;19.50;12.97;;;;;;;;;;5096871;28;20201;-80
2023/01/29 11:08:19;;;;;;;20.30;12.90;;;;;;;;;;5094360;28;20230;-81
2023/01/29 11:10:52;;;;;;;20.73;13.37;;;;;;;;;;5097599;28;20179;-81
2023/01/29 11:13:18;;;;;;;19.20;12.73;;;;;;;;;;5099993;28;20682;-81
2023/01/29 11:15:44;;;;;;;16.73;12.40;;;;;;;;;;5101662;28;20206;-78
2023/01/29 11:18:14;;;;;;;18.87;13.40;;;;;;;;;;5104558;28;20181;-79
2023/01/29 11:20:44;;;;;;;17.67;12.57;;;;;;;;;;5102660;27;20628;-79
2023/01/29 11:23:29;;;;;;;19.13;12.90;;;;;;;;;;5106636;28;20198;-78
2023/01/29 11:25:56;;;;;;;18.93;13.90;;;;;;;;;;5117481;27;20178;-79
2023/01/29 11:28:39;;;;;;;19.70;13.13;;;;;;;;;;5105559;27;20178;-79
2023/01/29 11:31:18;;;;;;;20.93;13.10;;;;;;;;;;5092942;27;20180;-79
2023/01/29 11:33:45;;;;;;;21.83;13.77;;;;;;;;;;5099752;28;20223;-79
2023/01/29 11:36:27;;;;;;;16.37;12.40;;;;;;;;;;5102472;27;20229;-80
2023/01/29 11:39:08;;;;;;;17.07;12.50;;;;;;;;;;5105514;27;20207;-79
2023/01/29 11:42:02;;;;;;;18.70;12.90;;;;;;;;;;5106960;27;20257;-80
2023/01/29 11:44:41;;;;;;;19.50;12.83;;;;;;;;;;5111466;27;20195;-81
2023/01/29 11:47:10;;;;;;;23.20;14.63;;;;;;;;;;5092907;28;20187;-80
2023/01/29 11:49:39;;;;;;;21.80;13.70;;;;;;;;;;5108149;27;20179;-81
2023/01/29 11:52:08;;;;;;;22.23;13.33;;;;;;;;;;5094974;27;20183;-81
2023/01/29 11:54:36;;;;;;;17.53;13.33;;;;;;;;;;5099592;28;20216;-80
2023/01/29 11:57:03;;;;;;;17.47;13.37;;;;;;;;;;5098911;28;20199;-79
2023/01/29 11:59:36;;;;;;;22.17;14.30;;;;;;;;;;5108806;28;20186;-80
2023/01/29 12:02:17;;;;;;;18.17;13.70;;;;;;;;;;5110735;28;20279;-80
2023/01/29 12:04:43;;;;;;;21.97;14.93;;;;;;;;;;5097905;28;20308;-80
2023/01/29 12:07:14;;;;;;;18.83;14.10;;;;;;;;;;5094433;28;20179;-80
2023/01/29 12:09:40;;;;;;;17.10;13.33;;;;;;;;;;5101341;28;20178;-79
2023/01/29 12:12:17;;;;;;;21.20;14.90;;;;;;;;;;5102406;28;20278;-79
2023/01/29 12:14:43;;;;;;;16.60;14.00;;;;;;;;;;5106787;28;20214;-79
2023/01/29 12:17:19;;;;;;;21.37;13.87;;;;;;;;;;5109800;28;20659;-80
2023/01/29 12:19:47;;;;;;;19.00;13.83;;;;;;;;;;5112508;27;20197;-80
2023/01/29 12:22:19;;;;;;;20.00;14.23;;;;;;;;;;5114797;27;20214;-79
2023/01/29 12:25:09;;;;;;;19.30;14.53;;;;;;;;;;5120619;28;20186;-79
2023/01/29 12:27:38;;;;;;;22.50;14.70;;;;;;;;;;5105589;28;20180;-79
2023/01/29 12:30:05;;;;;;;18.20;13.53;;;;;;;;;;5125005;27;20683;-80
2023/01/29 12:32:54;;;;;;;20.63;14.40;;;;;;;;;;5126417;27;20252;-81
2023/01/29 12:35:31;;;;;;;19.33;13.77;;;;;;;;;;5110406;27;20203;-81
2023/01/29 12:38:01;;;;;;;19.90;13.83;;;;;;;;;;5105506;28;20229;-81
2023/01/29 12:40:31;;;;;;;19.50;15.17;;;;;;;;;;5101963;28;20644;-79
2023/01/29 12:43:01;;;;;;;17.53;13.67;;;;;;;;;;5099531;28;20271;-79
2023/01/29 12:45:27;;;;;;;17.77;13.93;;;;;;;;;;5098773;28;20175;-80
2023/01/29 12:47:55;;;;;;;17.73;14.67;;;;;;;;;;5111482;28;20183;-80
2023/01/29 12:50:25;;;;;;;17.27;14.30;;;;;;;;;;5113108;28;20187;-81
2023/01/29 12:52:53;;;;;;;19.97;15.43;;;;;;;;;;5107087;28;20710;-81
2023/01/29 12:55:25;;;;;;;23.73;16.53;;;;;;;;;;5102708;28;20199;-80
2023/01/29 12:58:02;;;;;;;18.77;14.83;;;;;;;;;;5110774;28;20286;-79
2023/01/29 13:00:31;;;;;;;22.77;15.80;;;;;;;;;;5110802;28;20183;-80
2023/01/29 13:02:57;;;;;;;21.37;16.43;;;;;;;;;;5109400;28;20257;-80
2023/01/29 13:05:23;;;;;;;22.83;16.70;;;;;;;;;;5102351;28;20201;-79
2023/01/29 13:07:53;;;;;;;24.17;16.57;;;;;;;;;;5104080;28;20190;-79
2023/01/29 13:10:23;;;;;;;23.00;16.87;;;;;;;;;;5095945;28;20184;-80
2023/01/29 13:12:52;;;;;;;25.47;17.90;;;;;;;;;;5102886;28;20175;-80
2023/01/29 13:15:24;;;;;;;26.60;17.77;;;;;;;;;;5105326;28;20176;-79
2023/01/29 13:17:55;;;;;;;25.53;19.47;;;;;;;;;;5096922;28;20298;-82
2023/01/29 13:20:32;;;;;;;26.40;19.23;;;;;;;;;;5101014;28;20410;-80
2023/01/29 13:23:00;;;;;;;24.60;18.13;;;;;;;;;;5096668;28;20207;-79
2023/01/29 13:25:26;;;;;;;27.93;18.33;;;;;;;;;;5101804;28;20187;-79
2023/01/29 13:27:53;;;;;;;26.60;19.33;;;;;;;;;;5099949;28;20655;-80
2023/01/29 13:30:33;;;;;;;23.40;18.00;;;;;;;;;;5108696;28;20190;-78
2023/01/29 13:33:09;;;;;;;24.57;18.70;;;;;;;;;;5100937;28;20228;-80
2023/01/29 13:35:41;;;;;;;26.83;19.93;;;;;;;;;;5100371;28;20234;-80
2023/01/29 13:38:21;;;;;;;25.47;19.60;;;;;;;;;;5105610;28;20217;-80
2023/01/29 13:40:50;;;;;;;26.13;19.90;;;;;;;;;;5110817;28;20179;-80
2023/01/29 13:43:20;;;;;;;30.17;21.53;;;;;;;;;;5108832;28;20188;-81
2023/01/29 13:45:47;;;;;;;29.50;21.63;;;;;;;;;;5101513;28;20282;-81
2023/01/29 13:48:39;;;;;;;30.67;21.87;;;;;;;;;;5104292;28;20198;-80
2023/01/29 13:51:14;;;;;;;33.03;24.00;;;;;;;;;;5095359;28;20631;-79
2023/01/29 13:53:41;;;;;;;31.80;22.37;;;;;;;;;;5099538;28;20215;-79
2023/01/29 13:56:26;;;;;;;29.00;22.07;;;;;;;;;;5098737;28;20186;-80
2023/01/29 13:58:53;;;;;;;30.93;22.67;;;;;;;;;;5104827;28;20266;-82
2023/01/29 14:01:39;;;;;;;31.07;23.73;;;;;;;;;;5095059;28;20188;-81
2023/01/29 14:04:27;;;;;;;33.53;22.50;;;;;;;;;;5109208;28;20356;-80
2023/01/29 14:06:54;;;;;;;33.30;24.73;;;;;;;;;;5110093;28;20619;-79
2023/01/29 14:09:30;;;;;;;30.43;22.77;;;;;;;;;;5104537;28;20660;-80
2023/01/29 14:11:56;;;;;;;30.93;23.73;;;;;;;;;;5104313;28;20183;-79
2023/01/29 14:14:41;;;;;;;35.80;24.90;;;;;;;;;;5096030;28;20211;-79
2023/01/29 14:17:07;;;;;;;30.73;23.47;;;;;;;;;;5104103;28;20245;-79
2023/01/29 14:19:33;;;;;;;34.10;23.43;;;;;;;;;;5103257;28;20200;-80
2023/01/29 14:21:59;;;;;;;31.70;24.13;;;;;;;;;;5108380;28;20228;-78
2023/01/29 14:24:29;;;;;;;32.50;23.97;;;;;;;;;;5099390;28;20184;-80
2023/01/29 14:26:55;;;;;;;33.27;24.57;;;;;;;;;;5099184;28;20186;-79
2023/01/29 14:29:25;;;;;;;31.83;22.60;;;;;;;;;;5100291;28;20282;-79
2023/01/29 14:31:57;;;;;;;28.50;21.53;;;;;;;;;;5108651;28;20284;-80
2023/01/29 14:34:32;;;;;;;33.40;23.27;;;;;;;;;;5090485;28;20257;-79
2023/01/29 14:37:04;;;;;;;29.17;22.93;;;;;;;;;;5090198;28;20190;-79
2023/01/29 14:39:33;;;;;;;32.33;23.60;;;;;;;;;;5106451;28;20175;-78
2023/01/29 14:41:59;;;;;;;32.93;23.77;;;;;;;;;;5100390;28;20228;-79
2023/01/29 14:44:44;;;;;;;34.27;24.40;;;;;;;;;;5096555;28;20184;-79
2023/01/29 14:47:29;;;;;;;34.23;24.27;;;;;;;;;;5091919;28;20187;-81
2023/01/29 14:49:56;;;;;;;30.90;22.77;;;;;;;;;;5108682;28;20196;-80
2023/01/29 14:52:32;;;;;;;33.87;23.90;;;;;;;;;;5108174;28;20185;-80
2023/01/29 14:55:00;;;;;;;36.20;23.97;;;;;;;;;;5105408;28;20206;-79
2023/01/29 14:57:26;;;;;;;41.40;28.43;;;;;;;;;;5098312;28;20187;-79
2023/01/29 15:00:00;;;;;;;36.60;26.23;;;;;;;;;;5101995;28;20180;-80
2023/01/29 15:02:55;;;;;;;33.70;24.40;;;;;;;;;;5105692;28;20188;-80
2023/01/29 15:05:24;;;;;;;37.97;25.87;;;;;;;;;;5109651;27;20199;-80
2023/01/29 15:07:56;;;;;;;45.00;29.77;;;;;;;;;;5106944;28;20176;-79
2023/01/29 15:10:36;;;;;;;36.87;25.73;;;;;;;;;;5090040;28;20607;-80
2023/01/29 15:13:14;;;;;;;36.73;26.50;;;;;;;;;;5119675;27;20260;-79
2023/01/29 15:15:40;;;;;;;32.83;24.73;;;;;;;;;;5110359;28;20264;-79